Flight Track Log - Related Links

Times and Time Zones

All times are in EDT time to prevent confusion due to time zone crossing. See the OPT330 flight status page for this flight to view local times or setup timezone preferences in your user account.

Time Position Orientation Groundspeed Altitude Reporting Facility
EDT Latitude Longitude Course Direction KTS MPH feet Rate Location/Type
Mon 09:47:12 AM 32.9058 -96.9029 359° North 236 272 5,300  Level FlightAware ADS-B
Mon 09:47:32 AM 32.9242 -96.8975 25° Northeast 257 296 6,200 2,690 Climbing FlightAware ADS-B
Mon 09:47:41 AM 32.9327 -96.8910 37° Northeast 272 313 6,600 1,765 Climbing FlightAware ADS-B
Mon 09:47:49 AM 32.9366 -96.8864 46° Northeast 280 322 6,700 1,200 Climbing FlightAware ADS-B
Mon 09:48:01 AM 32.9479 -96.8597 74° East 300 345 7,000 3,247 Climbing FlightAware ADS-B
Mon 09:49:14 AM 32.9316 -96.8921 87° East 322 371 11,300 2,932 Climbing FlightAware ADS-B
Mon 09:52:27 AM 32.9705 -96.3358 86° East 391 450 20,000 2,703 Climbing FlightAware ADS-B
Mon 09:52:56 AM 32.9780 -96.2737 82° East 394 453 21,300 2,500 Climbing FlightAware ADS-B
Mon 09:53:27 AM 32.9876 -96.2078 80° East 407 468 22,500 2,376 Climbing FlightAware ADS-B
Mon 09:54:37 AM 33.0095 -96.0493 81° East 416 479 25,300 2,053 Climbing FlightAware ADS-B
Mon 09:55:21 AM 33.0213 -95.9625 80° East 443 510 26,400 1,624 Climbing FlightAware ADS-B
Mon 09:56:02 AM 33.0377 -95.8449 80° East 455 524 27,600 1,846 Climbing FlightAware ADS-B
Mon 09:56:26 AM 33.0450 -95.7914 80° East 456 525 28,400 2,057 Climbing FlightAware ADS-B
Mon 09:57:12 AM 33.0606 -95.6706 81° East 464 534 30,000 1,948 Climbing FlightAware ADS-B
Mon 09:57:43 AM 33.0702 -95.5937 80° East 471 542 30,900 1,966 Climbing FlightAware ADS-B
Mon 09:58:10 AM 33.0812 -95.5377 72° East 461 531 31,900 1,618 Climbing FlightAware ADS-B
Mon 09:59:12 AM 33.1298 -95.3820 70° East 483 556 33,300 1,152 Climbing FlightAware ADS-B
Mon 10:01:28 AM 33.2354 -95.0253 73° East 503 579 35,700 1,078 Climbing FlightAware ADS-B
Mon 10:01:59 AM 33.2596 -94.9432 70° East 506 582 36,300 1,143 Climbing FlightAware ADS-B
Mon 10:02:31 AM 33.2849 -94.8584 71° East 504 580 36,900 1,245 Climbing FlightAware ADS-B
Mon 10:02:52 AM 33.3016 -94.8029 70° East 487 560 37,400 1,071 Climbing FlightAware ADS-B
Mon 10:03:27 AM 33.3279 -94.7142 71° East 493 567 37,900 909 Climbing FlightAware ADS-B
Mon 10:03:58 AM 33.3516 -94.6352 70° East 489 563 38,400 1,075 Climbing FlightAware ADS-B
Mon 10:04:34 AM 33.3777 -94.5476 72° East 481 554 39,100 1,182 Climbing FlightAware ADS-B
Mon 10:05:04 AM 33.3993 -94.4694 72° East 473 544 39,700 1,200 Climbing FlightAware ADS-B
Mon 10:05:59 AM 33.4402 -94.3311 71° East 462 532 40,800 1,067 Climbing FlightAware ADS-B
Mon 10:06:34 AM 33.4639 -94.2476 71° East 459 528 41,300 1,000 Climbing FlightAware ADS-B
Mon 10:06:47 AM 33.4698 -94.2273 70° East 456 525 41,600 947 Climbing FlightAware ADS-B
Mon 10:07:12 AM 33.4894 -94.1595 71° East 454 522 41,900 643 Climbing FlightAware ADS-B
Mon 10:07:43 AM 33.5107 -94.0859 71° East 455 524 42,200 514 Climbing FlightAware ADS-B
Mon 10:07:47 AM 33.5124 -94.0800 71° East 454 522 42,200 1,000 Level FlightAware ADS-B
Mon 10:08:13 AM 33.5360 -94.0142 65° Northeast 449 517 42,700 857 Climbing FlightAware ADS-B
Mon 10:08:43 AM 33.5627 -93.9457 65° Northeast 450 518 43,000 600 Climbing FlightAware ADS-B
Mon 10:09:13 AM 33.5867 -93.8848 65° Northeast 450 518 43,300 689 Climbing FlightAware ADS-B
Mon 10:09:44 AM 33.6152 -93.8121 65° Northeast 447 514 43,700 930 Climbing FlightAware ADS-B
Mon 10:10:24 AM 33.6519 -93.7207 65° Northeast 441 507 44,400 876 Climbing FlightAware ADS-B
Mon 10:11:13 AM 33.6931 -93.6122 66° East 435 501 45,000 450 Climbing FlightAware ADS-B
Mon 10:11:44 AM 33.7189 -93.5446 65° Northeast 439 505 45,000  Level FlightAware ADS-B
Mon 10:12:14 AM 33.7449 -93.4770 65° Northeast 442 509 45,000  Level FlightAware ADS-B
Mon 10:12:47 AM 33.7724 -93.4049 65° Northeast 443 510 45,000  Level FlightAware ADS-B
Mon 10:13:17 AM 33.7975 -93.3388 65° Northeast 443 510 45,000  Level FlightAware ADS-B
Mon 10:13:47 AM 33.8242 -93.2688 65° Northeast 445 512 45,000  Level FlightAware ADS-B
Mon 10:14:13 AM 33.8467 -93.2098 66° East 447 514 45,000  Level FlightAware ADS-B
Mon 10:14:48 AM 33.8759 -93.1330 65° Northeast 447 514 45,000  Level FlightAware ADS-B
Mon 10:15:16 AM 33.8941 -93.0851 65° Northeast 447 514 45,000  Level FlightAware ADS-B
Mon 10:15:46 AM 33.9262 -93.0000 65° Northeast 447 514 45,000  Level FlightAware ADS-B
Mon 10:15:57 AM 33.9279 -92.9957 65° Northeast 447 514 45,000  Level FlightAware ADS-B
Mon 10:17:04 AM 33.9897 -92.8294 65° Northeast 445 512 45,000  Level Fort Worth Center
Mon 10:18:06 AM 34.0414 -92.6950 65° Northeast 445 512 45,000  Level Fort Worth Center
Mon 10:19:11 AM 34.0978 -92.5458 65° Northeast 446 513 45,000  Level Memphis Center
Mon 10:20:12 AM 34.1503 -92.4108 65° Northeast 446 513 45,000  Level Memphis Center
Mon 10:21:14 AM 34.2036 -92.2761 64° Northeast 446 513 45,000  Level Memphis Center
Mon 10:22:15 AM 34.2575 -92.1425 64° Northeast 446 513 45,000  Level Memphis Center
Mon 10:23:16 AM 34.3117 -92.0094 64° Northeast 446 513 45,000  Level Memphis Center
Mon 10:24:18 AM 34.3564 -91.8697 69° East 446 513 45,000  Level Memphis Center
Mon 10:25:19 AM 34.4014 -91.7303 69° East 446 513 45,000  Level Memphis Center
Mon 10:26:20 AM 34.4472 -91.5875 69° East 446 513 45,000  Level Memphis Center
Mon 10:27:22 AM 34.5061 -91.4225 67° East 445 512 45,000  Level Memphis Center
Mon 10:28:23 AM 34.5583 -91.2858 65° Northeast 445 512 45,000  Level Memphis Center
Mon 10:29:25 AM 34.6075 -91.1483 66° East 445 512 45,000  Level Memphis Center
Mon 10:30:26 AM 34.6564 -91.0089 67° East 447 514 45,000  Level Memphis Center
Mon 10:31:28 AM 34.7064 -90.8697 66° East 447 514 45,000  Level Memphis Center
Mon 10:32:29 AM 34.7550 -90.7297 67° East 448 516 45,000  Level Memphis Center
Mon 10:33:30 AM 34.8039 -90.5889 67° East 449 517 45,000  Level Memphis Center
Mon 10:34:32 AM 34.8542 -90.4475 67° East 450 518 45,000  Level Memphis Center
Mon 10:35:33 AM 34.9047 -90.3061 66° East 452 520 45,000  Level Memphis Center
Mon 10:36:34 AM 35.0047 -90.1722 48° Northeast 449 517 45,000  Level Memphis Center
Mon 10:37:36 AM 35.1086 -90.0894 33° Northeast 445 512 45,000  Level Memphis Center
Mon 10:38:37 AM 35.2131 -90.0064 33° Northeast 445 512 45,000  Level Memphis Center
Mon 10:39:39 AM 35.3169 -89.9236 33° Northeast 445 512 45,000  Level Memphis Center
Mon 10:40:40 AM 35.4217 -89.8400 33° Northeast 445 512 45,000  Level Memphis Center
Mon 10:41:42 AM 35.5244 -89.7578 33° Northeast 444 511 45,000  Level Memphis Center
Mon 10:42:43 AM 35.6289 -89.6742 33° Northeast 444 511 45,000  Level Memphis Center
Mon 10:43:44 AM 35.7397 -89.5844 33° Northeast 444 511 45,000  Level Memphis Center
Mon 10:44:46 AM 35.8439 -89.5017 33° Northeast 444 511 45,000  Level Memphis Center
Mon 10:45:47 AM 35.9464 -89.4186 33° Northeast 444 511 45,000  Level Memphis Center
Mon 10:46:48 AM 36.0489 -89.3353 33° Northeast 444 511 45,000  Level Memphis Center
Mon 10:47:50 AM 36.1506 -89.2522 33° Northeast 444 511 45,000  Level Memphis Center
Mon 10:49:53 AM 36.3719 -89.0692 34° Northeast 443 510 45,000  Level Memphis Center
Mon 10:50:54 AM 36.4733 -88.9886 33° Northeast 442 509 45,000  Level Memphis Center
Mon 10:51:55 AM 36.5750 -88.9050 33° Northeast 441 507 45,000  Level Memphis Center
Mon 10:52:57 AM 36.6758 -88.8214 34° Northeast 441 507 45,000  Level Memphis Center
Mon 10:53:58 AM 36.7769 -88.7381 33° Northeast 440 506 45,000  Level Memphis Center
Mon 10:55:00 AM 36.8778 -88.6536 34° Northeast 439 505 45,000  Level Memphis Center
Mon 10:56:01 AM 36.9769 -88.5708 34° Northeast 434 499 45,000  Level Memphis Center
Mon 10:57:02 AM 37.0972 -88.4703 34° Northeast 433 498 45,000  Level Memphis Center
Mon 10:58:04 AM 37.1964 -88.3875 34° Northeast 432 497 45,000  Level Memphis Center
Mon 10:59:05 AM 37.2950 -88.3033 34° Northeast 431 496 45,000  Level Memphis Center
Mon 11:04:36 AM 37.8207 -87.7919 59° Northeast 431 496 45,000  Level FlightAware ADS-B
Mon 11:05:07 AM 37.8526 -87.7265 58° Northeast 432 497 45,000  Level FlightAware ADS-B
Mon 11:05:40 AM 37.8868 -87.6564 59° Northeast 431 496 45,000  Level FlightAware ADS-B
Mon 11:06:11 AM 37.9187 -87.5905 59° Northeast 431 496 45,000  Level FlightAware ADS-B
Mon 11:06:41 AM 37.9459 -87.5340 58° Northeast 432 497 45,000  Level FlightAware ADS-B
Mon 11:07:20 AM 37.9838 -87.4556 59° Northeast 431 496 45,000  Level FlightAware ADS-B
Mon 11:08:10 AM 38.0413 -87.3354 59° Northeast 431 496 45,000  Level FlightAware ADS-B
Mon 11:08:40 AM 38.0716 -87.2720 59° Northeast 430 495 45,000  Level FlightAware ADS-B
Mon 11:09:11 AM 38.1062 -87.1995 59° Northeast 431 496 45,000  Level FlightAware ADS-B
Mon 11:10:01 AM 38.1571 -87.0922 59° Northeast 432 497 45,000  Level FlightAware ADS-B
Mon 11:11:17 AM 38.2360 -86.9257 59° Northeast 431 496 45,000  Level FlightAware ADS-B (YPEF)
Mon 11:12:00 AM 38.2497 -86.8967 59° Northeast 431 496 45,000  Level FlightAware ADS-B (YPEF)
Mon 11:15:11 AM 38.1571 -87.0922 59° Northeast 432 497 45,000  Level FlightAware ADS-B
Mon 11:15:55 AM 38.2497 -86.8967 59° Northeast 431 496 45,000  Level FlightAware ADS-B (YPEF)
Mon 11:20:32 AM 38.7897 -85.7324 59° Northeast 414 476 45,000  Level FlightAware ADS-B
Mon 11:21:18 AM 38.8380 -85.6262 60° Northeast 427 491 45,000  Level FlightAware ADS-B
Mon 11:26:35 AM 39.1467 -84.9380 60° Northeast 439 505 45,000  Level FlightAware ADS-B
Mon 11:28:31 AM 39.2730 -84.6523 61° Northeast 441 507 45,000  Level FlightAware ADS-B
Mon 11:29:25 AM 39.3218 -84.5412 61° Northeast 443 510 45,000  Level FlightAware ADS-B
Mon 11:30:29 AM 39.3742 -84.4212 61° Northeast 445 512 45,000  Level FlightAware ADS-B
Mon 11:31:30 AM 39.4520 -84.2426 61° Northeast 448 516 45,000  Level FlightAware ADS-B
Mon 11:32:06 AM 39.4880 -84.1594 61° Northeast 448 516 45,000  Level FlightAware ADS-B
Mon 11:34:06 AM 39.6058 -83.8864 61° Northeast 453 521 45,000  Level FlightAware ADS-B
Mon 11:35:03 AM 39.6698 -83.7367 61° Northeast 454 522 45,000  Level FlightAware ADS-B
Mon 11:35:46 AM 39.6917 -83.6854 61° Northeast 456 525 45,000  Level FlightAware ADS-B
Mon 11:36:16 AM 39.7387 -83.5597 73° East 455 524 45,000  Level FlightAware ADS-B
Mon 11:36:37 AM 39.7467 -83.5045 84° East 452 520 45,000  Level FlightAware ADS-B
Mon 11:37:17 AM 39.7455 -83.4187 93° East 450 518 45,000  Level FlightAware ADS-B
Mon 11:37:57 AM 39.7413 -83.3067 93° East 449 517 45,000  Level FlightAware ADS-B
Mon 11:40:27 AM 39.7249 -82.8931 93° East 445 512 45,000  Level FlightAware ADS-B
Mon 11:40:58 AM 39.7217 -82.8185 93° East 437 503 45,000  Level FlightAware ADS-B
Mon 11:41:31 AM 39.7191 -82.7571 93° East 433 498 45,000  Level FlightAware ADS-B
Mon 11:42:01 AM 39.7144 -82.6513 93° East 426 490 45,000  Level FlightAware ADS-B
Mon 11:42:49 AM 39.7092 -82.5356 93° East 423 487 45,000  Level FlightAware ADS-B
Mon 11:43:19 AM 39.7052 -82.4468 93° East 420 483 45,000  Level FlightAware ADS-B
Mon 11:44:02 AM 39.7008 -82.3521 93° East 417 480 45,000  Level FlightAware ADS-B
Mon 11:44:51 AM 39.6943 -82.2173 94° East 415 478 45,000  Level FlightAware ADS-B
Mon 11:45:30 AM 39.6898 -82.1236 94° East 415 478 45,000  Level FlightAware ADS-B
Mon 11:46:28 AM 39.6825 -81.9760 94° East 417 480 45,000  Level FlightAware ADS-B
Mon 11:47:17 AM 39.6769 -81.8659 94° East 419 482 45,000  Level FlightAware ADS-B
Mon 11:47:51 AM 39.6732 -81.7936 94° East 421 484 45,000  Level FlightAware ADS-B
Mon 11:49:12 AM 39.6632 -81.6047 94° East 425 489 45,000  Level FlightAware ADS-B
Mon 11:49:46 AM 39.6562 -81.4760 94° East 425 489 45,000  Level FlightAware ADS-B
Mon 11:50:58 AM 39.6468 -81.3046 94° East 425 489 45,000  Level FlightAware ADS-B
Mon 11:52:24 AM 39.6339 -81.0883 94° East 423 487 45,000  Level Indianapolis Center
Mon 11:53:22 AM 39.6261 -80.9403 94° East 423 487 45,000  Level Cleveland Center
Mon 11:54:24 AM 39.6169 -80.7900 94° East 422 486 45,000  Level Cleveland Center
Mon 11:55:26 AM 39.6086 -80.6450 94° East 410 472 45,000  Level Cleveland Center
Mon 11:56:28 AM 39.5983 -80.5044 95° East 403 464 45,000 -683 Level Cleveland Center
Mon 11:57:29 AM 39.5903 -80.3628 94° East 397 457 43,600 -2,488 Descending Cleveland Center
Mon 11:58:31 AM 39.5775 -80.1761 95° East 433 498 39,900 -3,242 Descending Cleveland Center
Mon 11:59:33 AM 39.5656 -80.0028 95° East 477 549 36,900 -3,145 Descending Cleveland Center
Mon 12:00:35 PM 39.5531 -79.8383 96° East 470 541 33,400 -3,387 Descending Cleveland Center
Mon 12:01:37 PM 39.5225 -79.6719 103° East 474 545 29,900 -3,122 Descending Cleveland Center
Mon 12:02:38 PM 39.4892 -79.5011 104° East 488 562 27,000 -1,805 Descending Cleveland Center
Mon 12:03:40 PM 39.4547 -79.3378 105° East 473 544 26,200 -1,016 Descending Cleveland Center
Mon 12:04:42 PM 39.4133 -79.1414 105° East 471 542 24,900 -1,706 Descending Cleveland Center
Mon 12:05:29 PM 39.3858 -79.0125 105° East 477 549 23,100 -2,367 Descending Washington Center
Mon 12:06:31 PM 39.3528 -78.8528 105° East 472 543 20,600 -2,500 Descending Washington Center
Mon 12:07:29 PM 39.3194 -78.6928 105° East 466 536 18,100 -2,492 Descending Washington Center
Mon 12:08:29 PM 39.2858 -78.5439 106° East 454 522 15,700 -2,231 Descending Washington Center
Mon 12:09:30 PM 39.2558 -78.4033 105° East 427 491 13,600 -2,016 Descending Washington Center
Mon 12:10:31 PM 39.2272 -78.2789 106° East 393 452 11,600 -2,017 Descending Washington Center
Mon 12:11:29 PM 39.1897 -78.1839 117° Southeast 340 391 9,600 -2,288 Descending Washington Center
Mon 12:12:29 PM 39.1458 -78.0939 122° Southeast 317 365 7,100 -2,281 Descending Washington Center
Mon 12:13:30 PM 39.1353 -78.0025 98° East 263 303 5,000 -1,050 Descending Washington Center
Mon 12:14:29 PM 39.1786 -77.9158 57° Northeast 247 284 5,000 -50 Level Washington Center
Mon 12:15:30 PM 39.2178 -77.8258 61° Northeast 266 306 4,900 -49 Descending Washington Center
Mon 12:16:31 PM 39.2403 -77.7328 73° East 271 312 4,900 -179 Level Washington Center
Mon 12:21:38 PM 39.1514 -77.4568 179° South 160 184 3,800 -279 Descending FlightAware ADS-B
Mon 12:22:58 PM 39.1000 -77.4500 179° South 145 167 3,100 -686 Descending Potomac TRACON
Mon 12:23:58 PM 39.0500 -77.4500 180° South 149 171 2,200 -900 Descending Potomac TRACON
Mon 12:24:58 PM 39.0167 -77.4667 201° Southwest 129 148 1,300 -800 Descending Potomac TRACON
Mon 12:25:58 PM 38.9833 -77.4667 180° South 121 139 600 -700 Descending Potomac TRACON
Mon 12:27:00 PM 38.9474 -77.4599 165° South  Level Estimated
Mon 12:34:00 PM 38.9474 -77.4599 165° South  Level Estimated
Mon 12:35:00 PM 38.9474 -77.4599 165° South  Level Estimated

Login

Don't have an account? Register now (free) for customized features, flight alerts, and more!